sensor_id;sensor_type;location;lat;lon;timestamp;temperature;humidity
48988;DHT22;34799;51.440;-2.534;2023-07-08T00:00:23;22.30;99.90
48988;DHT22;34799;51.440;-2.534;2023-07-08T00:02:52;22.30;99.90
48988;DHT22;34799;51.440;-2.534;2023-07-08T00:05:21;22.30;99.90
48988;DHT22;34799;51.440;-2.534;2023-07-08T00:07:49;22.20;99.90
48988;DHT22;34799;51.440;-2.534;2023-07-08T00:10:22;22.20;99.90
48988;DHT22;34799;51.440;-2.534;2023-07-08T00:12:51;22.20;99.90
48988;DHT22;34799;51.440;-2.534;2023-07-08T00:15:21;22.20;99.90
48988;DHT22;34799;51.440;-2.534;2023-07-08T00:17:50;22.20;99.90
48988;DHT22;34799;51.440;-2.534;2023-07-08T00:20:36;22.20;99.90
48988;DHT22;34799;51.440;-2.534;2023-07-08T00:23:04;22.10;99.90
48988;DHT22;34799;51.440;-2.534;2023-07-08T00:25:32;22.10;99.90
48988;DHT22;34799;51.440;-2.534;2023-07-08T00:27:59;23.50;99.90
48988;DHT22;34799;51.440;-2.534;2023-07-08T00:30:31;22.10;99.90
48988;DHT22;34799;51.440;-2.534;2023-07-08T00:32:59;22.20;99.90
48988;DHT22;34799;51.440;-2.534;2023-07-08T00:38:02;22.20;99.90
48988;DHT22;34799;51.440;-2.534;2023-07-08T00:43:51;22.10;99.90
48988;DHT22;34799;51.440;-2.534;2023-07-08T00:51:35;22.10;99.90
48988;DHT22;34799;51.440;-2.534;2023-07-08T00:54:14;22.00;99.90
48988;DHT22;34799;51.440;-2.534;2023-07-08T00:57:01;22.00;99.90
48988;DHT22;34799;51.440;-2.534;2023-07-08T00:59:45;22.00;99.90
48988;DHT22;34799;51.440;-2.534;2023-07-08T01:02:18;22.00;99.90
48988;DHT22;34799;51.440;-2.534;2023-07-08T01:04:58;21.90;99.90
48988;DHT22;34799;51.440;-2.534;2023-07-08T01:07:30;21.90;99.90
48988;DHT22;34799;51.440;-2.534;2023-07-08T01:10:22;21.90;99.90
48988;DHT22;34799;51.440;-2.534;2023-07-08T01:12:57;21.90;99.90
48988;DHT22;34799;51.440;-2.534;2023-07-08T01:15:32;22.00;99.90
48988;DHT22;34799;51.440;-2.534;2023-07-08T01:18:04;21.90;99.90
48988;DHT22;34799;51.440;-2.534;2023-07-08T01:20:32;21.90;99.90
48988;DHT22;34799;51.440;-2.534;2023-07-08T01:22:59;21.90;99.90
48988;DHT22;34799;51.440;-2.534;2023-07-08T01:25:26;21.90;99.90
48988;DHT22;34799;51.440;-2.534;2023-07-08T01:27:55;21.80;99.90
48988;DHT22;34799;51.440;-2.534;2023-07-08T01:30:23;21.80;99.90
48988;DHT22;34799;51.440;-2.534;2023-07-08T01:32:57;21.80;99.90
48988;DHT22;34799;51.440;-2.534;2023-07-08T01:35:26;21.70;99.90
48988;DHT22;34799;51.440;-2.534;2023-07-08T01:37:57;21.70;99.90
48988;DHT22;34799;51.440;-2.534;2023-07-08T01:42:56;21.60;99.90
48988;DHT22;34799;51.440;-2.534;2023-07-08T01:45:25;21.60;99.90
48988;DHT22;34799;51.440;-2.534;2023-07-08T01:47:58;21.50;99.90
48988;DHT22;34799;51.440;-2.534;2023-07-08T01:50:27;21.40;99.90
48988;DHT22;34799;51.440;-2.534;2023-07-08T01:52:58;21.40;99.90
48988;DHT22;34799;51.440;-2.534;2023-07-08T01:55:27;21.40;99.90
48988;DHT22;34799;51.440;-2.534;2023-07-08T01:57:58;21.40;99.90
48988;DHT22;34799;51.440;-2.534;2023-07-08T02:00:25;21.40;99.90
48988;DHT22;34799;51.440;-2.534;2023-07-08T02:02:53;21.40;99.90
48988;DHT22;34799;51.440;-2.534;2023-07-08T02:05:20;21.30;99.90
48988;DHT22;34799;51.440;-2.534;2023-07-08T02:07:47;21.30;99.90
48988;DHT22;34799;51.440;-2.534;2023-07-08T02:10:14;21.30;99.90
48988;DHT22;34799;51.440;-2.534;2023-07-08T02:12:41;21.30;99.90
48988;DHT22;34799;51.440;-2.534;2023-07-08T02:15:09;21.30;99.90
48988;DHT22;34799;51.440;-2.534;2023-07-08T02:17:36;21.20;99.90
48988;DHT22;34799;51.440;-2.534;2023-07-08T02:20:03;21.30;99.90
48988;DHT22;34799;51.440;-2.534;2023-07-08T02:22:31;21.20;99.90
48988;DHT22;34799;51.440;-2.534;2023-07-08T02:24:58;21.20;99.90
48988;DHT22;34799;51.440;-2.534;2023-07-08T02:27:25;21.10;99.90
48988;DHT22;34799;51.440;-2.534;2023-07-08T02:29:52;21.20;99.90
48988;DHT22;34799;51.440;-2.534;2023-07-08T02:32:19;21.20;99.90
48988;DHT22;34799;51.440;-2.534;2023-07-08T02:34:46;21.20;99.90
48988;DHT22;34799;51.440;-2.534;2023-07-08T02:37:13;21.20;99.90
48988;DHT22;34799;51.440;-2.534;2023-07-08T02:42:07;21.20;99.90
48988;DHT22;34799;51.440;-2.534;2023-07-08T02:44:36;21.20;99.90
48988;DHT22;34799;51.440;-2.534;2023-07-08T02:47:05;21.10;99.90
48988;DHT22;34799;51.440;-2.534;2023-07-08T02:49:33;21.10;99.90
48988;DHT22;34799;51.440;-2.534;2023-07-08T02:52:00;21.00;99.90
48988;DHT22;34799;51.440;-2.534;2023-07-08T02:54:27;21.10;99.90
48988;DHT22;34799;51.440;-2.534;2023-07-08T02:56:55;21.10;99.90
48988;DHT22;34799;51.440;-2.534;2023-07-08T02:59:22;21.10;99.90
48988;DHT22;34799;51.440;-2.534;2023-07-08T03:01:49;21.10;99.90
48988;DHT22;34799;51.440;-2.534;2023-07-08T03:04:17;21.10;99.90
48988;DHT22;34799;51.440;-2.534;2023-07-08T03:06:45;21.10;99.90
48988;DHT22;34799;51.440;-2.534;2023-07-08T03:09:13;21.10;99.90
48988;DHT22;34799;51.440;-2.534;2023-07-08T03:11:40;21.00;99.90
48988;DHT22;34799;51.440;-2.534;2023-07-08T03:14:08;21.10;99.90
48988;DHT22;34799;51.440;-2.534;2023-07-08T03:16:35;21.00;99.90
48988;DHT22;34799;51.440;-2.534;2023-07-08T03:19:02;21.00;99.90
48988;DHT22;34799;51.440;-2.534;2023-07-08T03:21:32;21.00;99.90
48988;DHT22;34799;51.440;-2.534;2023-07-08T03:24:01;21.00;99.90
48988;DHT22;34799;51.440;-2.534;2023-07-08T03:26:28;21.10;99.90
48988;DHT22;34799;51.440;-2.534;2023-07-08T03:28:58;21.10;99.90
48988;DHT22;34799;51.440;-2.534;2023-07-08T03:31:25;21.10;99.90
48988;DHT22;34799;51.440;-2.534;2023-07-08T03:33:53;21.10;99.90
48988;DHT22;34799;51.440;-2.534;2023-07-08T03:36:20;21.10;99.90
48988;DHT22;34799;51.440;-2.534;2023-07-08T03:38:54;21.10;99.90
48988;DHT22;34799;51.440;-2.534;2023-07-08T03:41:23;21.00;99.90
48988;DHT22;34799;51.440;-2.534;2023-07-08T03:43:50;20.90;99.90
48988;DHT22;34799;51.440;-2.534;2023-07-08T03:46:20;21.00;99.90
48988;DHT22;34799;51.440;-2.534;2023-07-08T03:48:48;21.50;99.90
48988;DHT22;34799;51.440;-2.534;2023-07-08T03:51:23;20.90;99.90
48988;DHT22;34799;51.440;-2.534;2023-07-08T03:53:50;20.90;99.90
48988;DHT22;34799;51.440;-2.534;2023-07-08T03:56:19;20.90;99.90
48988;DHT22;34799;51.440;-2.534;2023-07-08T03:58:48;20.90;99.90
48988;DHT22;34799;51.440;-2.534;2023-07-08T04:01:16;20.90;99.90
48988;DHT22;34799;51.440;-2.534;2023-07-08T04:03:44;20.90;99.90
48988;DHT22;34799;51.440;-2.534;2023-07-08T04:06:12;20.80;99.90
48988;DHT22;34799;51.440;-2.534;2023-07-08T04:08:40;20.80;99.90
48988;DHT22;34799;51.440;-2.534;2023-07-08T04:11:10;20.80;99.90
48988;DHT22;34799;51.440;-2.534;2023-07-08T04:13:40;20.70;99.90
48988;DHT22;34799;51.440;-2.534;2023-07-08T04:16:09;20.80;99.90
48988;DHT22;34799;51.440;-2.534;2023-07-08T04:18:38;20.80;99.90
48988;DHT22;34799;51.440;-2.534;2023-07-08T04:21:05;20.80;99.90
48988;DHT22;34799;51.440;-2.534;2023-07-08T04:23:37;20.80;99.90
48988;DHT22;34799;51.440;-2.534;2023-07-08T04:26:05;20.80;99.90
48988;DHT22;34799;51.440;-2.534;2023-07-08T04:28:32;20.80;99.90
48988;DHT22;34799;51.440;-2.534;2023-07-08T04:30:59;20.80;99.90
48988;DHT22;34799;51.440;-2.534;2023-07-08T04:33:26;20.80;99.90
48988;DHT22;34799;51.440;-2.534;2023-07-08T04:35:53;20.90;99.90
48988;DHT22;34799;51.440;-2.534;2023-07-08T04:38:24;20.90;99.90
48988;DHT22;34799;51.440;-2.534;2023-07-08T04:40:52;20.90;99.90
48988;DHT22;34799;51.440;-2.534;2023-07-08T04:43:20;20.90;99.90
48988;DHT22;34799;51.440;-2.534;2023-07-08T04:45:51;21.00;99.90
48988;DHT22;34799;51.440;-2.534;2023-07-08T04:48:20;21.10;99.90
48988;DHT22;34799;51.440;-2.534;2023-07-08T04:50:54;21.10;99.90
48988;DHT22;34799;51.440;-2.534;2023-07-08T04:53:22;21.20;99.90
48988;DHT22;34799;51.440;-2.534;2023-07-08T04:55:55;21.30;99.90
48988;DHT22;34799;51.440;-2.534;2023-07-08T04:58:24;21.30;99.90
48988;DHT22;34799;51.440;-2.534;2023-07-08T05:00:52;21.40;99.90
48988;DHT22;34799;51.440;-2.534;2023-07-08T05:03:19;21.50;99.90
48988;DHT22;34799;51.440;-2.534;2023-07-08T05:05:46;21.50;99.90
48988;DHT22;34799;51.440;-2.534;2023-07-08T05:08:13;21.60;99.90
48988;DHT22;34799;51.440;-2.534;2023-07-08T05:10:41;21.60;99.90
48988;DHT22;34799;51.440;-2.534;2023-07-08T05:13:08;21.60;99.90
48988;DHT22;34799;51.440;-2.534;2023-07-08T05:15:35;21.60;99.90
48988;DHT22;34799;51.440;-2.534;2023-07-08T05:18:02;21.60;99.90
48988;DHT22;34799;51.440;-2.534;2023-07-08T05:20:30;21.60;99.90
48988;DHT22;34799;51.440;-2.534;2023-07-08T05:22:59;21.50;99.90
48988;DHT22;34799;51.440;-2.534;2023-07-08T05:25:26;21.50;99.90
48988;DHT22;34799;51.440;-2.534;2023-07-08T05:27:54;21.50;99.90
48988;DHT22;34799;51.440;-2.534;2023-07-08T05:30:21;21.50;99.90
48988;DHT22;34799;51.440;-2.534;2023-07-08T05:32:48;21.50;99.90
48988;DHT22;34799;51.440;-2.534;2023-07-08T05:35:16;21.50;99.90
48988;DHT22;34799;51.440;-2.534;2023-07-08T05:37:43;21.50;99.90
48988;DHT22;34799;51.440;-2.534;2023-07-08T05:40:15;21.50;99.90
48988;DHT22;34799;51.440;-2.534;2023-07-08T05:42:42;21.50;99.90
48988;DHT22;34799;51.440;-2.534;2023-07-08T05:45:10;21.50;99.90
48988;DHT22;34799;51.440;-2.534;2023-07-08T05:47:37;21.50;99.90
48988;DHT22;34799;51.440;-2.534;2023-07-08T05:50:04;21.50;99.90
48988;DHT22;34799;51.440;-2.534;2023-07-08T05:52:32;21.50;99.90
48988;DHT22;34799;51.440;-2.534;2023-07-08T05:54:59;21.40;99.90
48988;DHT22;34799;51.440;-2.534;2023-07-08T05:57:26;21.30;99.90
48988;DHT22;34799;51.440;-2.534;2023-07-08T05:59:53;21.30;99.90
48988;DHT22;34799;51.440;-2.534;2023-07-08T06:02:20;21.30;99.90
48988;DHT22;34799;51.440;-2.534;2023-07-08T06:04:50;21.30;99.90
48988;DHT22;34799;51.440;-2.534;2023-07-08T06:07:17;21.20;99.90
48988;DHT22;34799;51.440;-2.534;2023-07-08T06:09:44;21.20;99.90
48988;DHT22;34799;51.440;-2.534;2023-07-08T06:12:11;21.20;99.90
48988;DHT22;34799;51.440;-2.534;2023-07-08T06:14:39;21.20;99.90
48988;DHT22;34799;51.440;-2.534;2023-07-08T06:17:06;21.10;99.90
48988;DHT22;34799;51.440;-2.534;2023-07-08T06:19:34;21.10;99.90
48988;DHT22;34799;51.440;-2.534;2023-07-08T06:22:01;21.10;99.90
48988;DHT22;34799;51.440;-2.534;2023-07-08T06:24:40;21.10;99.90
48988;DHT22;34799;51.440;-2.534;2023-07-08T06:27:08;21.10;99.90
48988;DHT22;34799;51.440;-2.534;2023-07-08T06:29:36;21.00;99.90
48988;DHT22;34799;51.440;-2.534;2023-07-08T06:32:03;21.00;99.90
48988;DHT22;34799;51.440;-2.534;2023-07-08T06:34:30;21.10;99.90
48988;DHT22;34799;51.440;-2.534;2023-07-08T06:36:57;21.00;99.90
48988;DHT22;34799;51.440;-2.534;2023-07-08T06:39:24;21.10;99.90
48988;DHT22;34799;51.440;-2.534;2023-07-08T06:41:51;21.10;99.90
48988;DHT22;34799;51.440;-2.534;2023-07-08T06:44:24;21.10;99.90
48988;DHT22;34799;51.440;-2.534;2023-07-08T06:46:54;21.00;99.90
48988;DHT22;34799;51.440;-2.534;2023-07-08T06:49:21;21.00;99.90
48988;DHT22;34799;51.440;-2.534;2023-07-08T06:51:49;21.00;99.90
48988;DHT22;34799;51.440;-2.534;2023-07-08T06:54:16;20.90;99.90
48988;DHT22;34799;51.440;-2.534;2023-07-08T06:56:43;20.90;99.90
48988;DHT22;34799;51.440;-2.534;2023-07-08T06:59:11;20.90;99.90
48988;DHT22;34799;51.440;-2.534;2023-07-08T07:01:38;20.90;99.90
48988;DHT22;34799;51.440;-2.534;2023-07-08T07:04:05;20.90;99.90
48988;DHT22;34799;51.440;-2.534;2023-07-08T07:06:32;20.90;99.90
48988;DHT22;34799;51.440;-2.534;2023-07-08T07:08:59;21.00;99.90
48988;DHT22;34799;51.440;-2.534;2023-07-08T07:11:26;20.90;99.90
48988;DHT22;34799;51.440;-2.534;2023-07-08T07:13:54;21.00;99.90
48988;DHT22;34799;51.440;-2.534;2023-07-08T07:16:22;21.00;99.90
48988;DHT22;34799;51.440;-2.534;2023-07-08T07:18:49;21.00;99.90
48988;DHT22;34799;51.440;-2.534;2023-07-08T07:21:18;21.00;99.90
48988;DHT22;34799;51.440;-2.534;2023-07-08T07:23:46;21.00;99.90
48988;DHT22;34799;51.440;-2.534;2023-07-08T07:26:13;21.00;99.90
48988;DHT22;34799;51.440;-2.534;2023-07-08T07:28:41;21.10;99.90
48988;DHT22;34799;51.440;-2.534;2023-07-08T07:31:08;21.10;99.90
48988;DHT22;34799;51.440;-2.534;2023-07-08T07:33:39;21.10;99.90
48988;DHT22;34799;51.440;-2.534;2023-07-08T07:36:06;21.20;99.90
48988;DHT22;34799;51.440;-2.534;2023-07-08T07:38:33;21.20;99.90
48988;DHT22;34799;51.440;-2.534;2023-07-08T07:41:00;21.30;99.90
48988;DHT22;34799;51.440;-2.534;2023-07-08T07:43:33;21.30;99.90
48988;DHT22;34799;51.440;-2.534;2023-07-08T07:46:03;21.30;99.90
48988;DHT22;34799;51.440;-2.534;2023-07-08T07:48:32;21.30;99.90
48988;DHT22;34799;51.440;-2.534;2023-07-08T07:50:59;21.20;99.90
48988;DHT22;34799;51.440;-2.534;2023-07-08T07:53:26;21.20;99.90
48988;DHT22;34799;51.440;-2.534;2023-07-08T07:55:57;21.20;99.90
48988;DHT22;34799;51.440;-2.534;2023-07-08T07:58:25;21.10;99.90
48988;DHT22;34799;51.440;-2.534;2023-07-08T08:00:55;21.20;99.90
48988;DHT22;34799;51.440;-2.534;2023-07-08T08:03:23;21.20;99.90
48988;DHT22;34799;51.440;-2.534;2023-07-08T08:05:50;21.20;99.90
48988;DHT22;34799;51.440;-2.534;2023-07-08T08:08:19;21.30;99.90
48988;DHT22;34799;51.440;-2.534;2023-07-08T08:10:46;21.20;99.90
48988;DHT22;34799;51.440;-2.534;2023-07-08T08:13:13;21.10;99.90
48988;DHT22;34799;51.440;-2.534;2023-07-08T08:15:40;21.20;99.90
48988;DHT22;34799;51.440;-2.534;2023-07-08T08:18:07;21.20;99.90
48988;DHT22;34799;51.440;-2.534;2023-07-08T08:20:34;21.20;99.90
48988;DHT22;34799;51.440;-2.534;2023-07-08T08:23:01;21.20;99.90
48988;DHT22;34799;51.440;-2.534;2023-07-08T08:25:28;21.20;99.90
48988;DHT22;34799;51.440;-2.534;2023-07-08T08:27:55;23.10;99.90
48988;DHT22;34799;51.440;-2.534;2023-07-08T08:30:23;21.20;99.90
48988;DHT22;34799;51.440;-2.534;2023-07-08T08:32:50;21.20;99.90
48988;DHT22;34799;51.440;-2.534;2023-07-08T08:35:17;21.20;99.90
48988;DHT22;34799;51.440;-2.534;2023-07-08T08:37:44;21.20;99.90
48988;DHT22;34799;51.440;-2.534;2023-07-08T08:40:15;21.20;99.90
48988;DHT22;34799;51.440;-2.534;2023-07-08T08:42:57;21.20;99.90
48988;DHT22;34799;51.440;-2.534;2023-07-08T08:45:26;21.20;99.90
48988;DHT22;34799;51.440;-2.534;2023-07-08T08:48:01;21.10;99.90
48988;DHT22;34799;51.440;-2.534;2023-07-08T08:50:55;21.10;99.90
48988;DHT22;34799;51.440;-2.534;2023-07-08T08:53:24;21.00;99.90
48988;DHT22;34799;51.440;-2.534;2023-07-08T08:56:15;20.90;99.90
48988;DHT22;34799;51.440;-2.534;2023-07-08T09:01:38;20.80;99.90
48988;DHT22;34799;51.440;-2.534;2023-07-08T09:04:13;20.80;99.90
48988;DHT22;34799;51.440;-2.534;2023-07-08T09:06:43;20.80;99.90
48988;DHT22;34799;51.440;-2.534;2023-07-08T09:09:27;20.90;99.90
48988;DHT22;34799;51.440;-2.534;2023-07-08T09:12:04;21.00;99.90
48988;DHT22;34799;51.440;-2.534;2023-07-08T09:14:34;21.00;99.90
48988;DHT22;34799;51.440;-2.534;2023-07-08T09:17:20;21.10;99.90
48988;DHT22;34799;51.440;-2.534;2023-07-08T09:28:42;21.60;99.90
48988;DHT22;34799;51.440;-2.534;2023-07-08T09:31:23;21.80;99.90
48988;DHT22;34799;51.440;-2.534;2023-07-08T09:34:13;22.00;99.90
48988;DHT22;34799;51.440;-2.534;2023-07-08T09:36:44;22.20;99.90
48988;DHT22;34799;51.440;-2.534;2023-07-08T09:39:17;22.30;99.90
48988;DHT22;34799;51.440;-2.534;2023-07-08T09:41:47;22.40;99.90
48988;DHT22;34799;51.440;-2.534;2023-07-08T09:44:25;22.50;99.90
48988;DHT22;34799;51.440;-2.534;2023-07-08T09:46:54;22.50;99.90
48988;DHT22;34799;51.440;-2.534;2023-07-08T09:49:36;22.60;99.90
48988;DHT22;34799;51.440;-2.534;2023-07-08T09:52:04;22.70;99.90
48988;DHT22;34799;51.440;-2.534;2023-07-08T09:54:31;22.80;99.90
48988;DHT22;34799;51.440;-2.534;2023-07-08T09:57:12;22.80;99.90
48988;DHT22;34799;51.440;-2.534;2023-07-08T09:59:53;22.90;99.90
48988;DHT22;34799;51.440;-2.534;2023-07-08T10:02:27;22.90;99.90
48988;DHT22;34799;51.440;-2.534;2023-07-08T10:05:00;23.00;99.90
48988;DHT22;34799;51.440;-2.534;2023-07-08T10:07:31;23.00;99.90
48988;DHT22;34799;51.440;-2.534;2023-07-08T10:10:01;22.90;99.90
48988;DHT22;34799;51.440;-2.534;2023-07-08T10:12:30;22.90;99.90
48988;DHT22;34799;51.440;-2.534;2023-07-08T10:15:13;22.80;99.90
48988;DHT22;34799;51.440;-2.534;2023-07-08T10:17:45;22.80;99.90
48988;DHT22;34799;51.440;-2.534;2023-07-08T10:20:13;22.90;99.90
48988;DHT22;34799;51.440;-2.534;2023-07-08T10:25:32;22.90;99.90
48988;DHT22;34799;51.440;-2.534;2023-07-08T10:30:42;22.90;99.90
48988;DHT22;34799;51.440;-2.534;2023-07-08T10:33:34;22.90;99.90
48988;DHT22;34799;51.440;-2.534;2023-07-08T10:36:18;23.00;99.90
48988;DHT22;34799;51.440;-2.534;2023-07-08T10:39:16;23.10;99.90
48988;DHT22;34799;51.440;-2.534;2023-07-08T10:47:37;23.00;99.90
48988;DHT22;34799;51.440;-2.534;2023-07-08T10:51:07;22.90;99.90
48988;DHT22;34799;51.440;-2.534;2023-07-08T10:56:59;22.90;99.90
48988;DHT22;34799;51.440;-2.534;2023-07-08T10:59:52;22.90;99.90
48988;DHT22;34799;51.440;-2.534;2023-07-08T11:03:01;22.80;99.90
48988;DHT22;34799;51.440;-2.534;2023-07-08T11:08:10;22.80;99.90
48988;DHT22;34799;51.440;-2.534;2023-07-08T11:10:49;22.80;99.90
48988;DHT22;34799;51.440;-2.534;2023-07-08T11:13:21;22.80;99.90
48988;DHT22;34799;51.440;-2.534;2023-07-08T11:16:02;23.00;99.90
48988;DHT22;34799;51.440;-2.534;2023-07-08T11:18:41;23.10;99.90
48988;DHT22;34799;51.440;-2.534;2023-07-08T11:21:15;23.20;99.90
48988;DHT22;34799;51.440;-2.534;2023-07-08T11:29:39;23.30;99.90
48988;DHT22;34799;51.440;-2.534;2023-07-08T11:32:14;23.30;99.90
48988;DHT22;34799;51.440;-2.534;2023-07-08T11:34:44;23.30;99.90
48988;DHT22;34799;51.440;-2.534;2023-07-08T11:37:13;23.30;99.90
48988;DHT22;34799;51.440;-2.534;2023-07-08T11:39:44;23.50;99.90
48988;DHT22;34799;51.440;-2.534;2023-07-08T11:42:23;23.60;99.90
48988;DHT22;34799;51.440;-2.534;2023-07-08T11:44:58;23.60;99.90
48988;DHT22;34799;51.440;-2.534;2023-07-08T11:47:35;23.50;99.90
48988;DHT22;34799;51.440;-2.534;2023-07-08T11:53:00;23.40;99.90
48988;DHT22;34799;51.440;-2.534;2023-07-08T11:58:23;23.30;99.90
48988;DHT22;34799;51.440;-2.534;2023-07-08T12:01:39;23.30;99.90
48988;DHT22;34799;51.440;-2.534;2023-07-08T12:08:58;23.10;99.90
48988;DHT22;34799;51.440;-2.534;2023-07-08T12:11:34;23.00;99.90
48988;DHT22;34799;51.440;-2.534;2023-07-08T12:14:03;22.90;99.90
48988;DHT22;34799;51.440;-2.534;2023-07-08T12:16:32;22.90;99.90
48988;DHT22;34799;51.440;-2.534;2023-07-08T12:19:00;22.80;99.90
48988;DHT22;34799;51.440;-2.534;2023-07-08T12:21:28;22.70;99.90
48988;DHT22;34799;51.440;-2.534;2023-07-08T12:23:55;23.10;99.90
48988;DHT22;34799;51.440;-2.534;2023-07-08T12:26:22;22.50;99.90
48988;DHT22;34799;51.440;-2.534;2023-07-08T12:28:51;22.40;99.90
48988;DHT22;34799;51.440;-2.534;2023-07-08T12:31:20;22.30;99.90
48988;DHT22;34799;51.440;-2.534;2023-07-08T12:33:49;22.30;99.90
48988;DHT22;34799;51.440;-2.534;2023-07-08T12:36:19;22.20;99.90
48988;DHT22;34799;51.440;-2.534;2023-07-08T12:38:48;22.10;99.90
48988;DHT22;34799;51.440;-2.534;2023-07-08T12:41:22;22.00;99.90
48988;DHT22;34799;51.440;-2.534;2023-07-08T12:43:50;21.90;99.90
48988;DHT22;34799;51.440;-2.534;2023-07-08T12:46:20;21.80;99.90
48988;DHT22;34799;51.440;-2.534;2023-07-08T12:48:48;21.90;99.90
48988;DHT22;34799;51.440;-2.534;2023-07-08T12:51:18;22.00;99.90
48988;DHT22;34799;51.440;-2.534;2023-07-08T12:53:52;22.00;99.90
48988;DHT22;34799;51.440;-2.534;2023-07-08T12:56:22;22.00;99.90
48988;DHT22;34799;51.440;-2.534;2023-07-08T12:58:53;21.90;99.90
48988;DHT22;34799;51.440;-2.534;2023-07-08T13:01:24;21.90;99.90
48988;DHT22;34799;51.440;-2.534;2023-07-08T13:03:56;23.10;99.90
48988;DHT22;34799;51.440;-2.534;2023-07-08T13:06:30;21.90;99.90
48988;DHT22;34799;51.440;-2.534;2023-07-08T13:09:07;21.90;99.90
48988;DHT22;34799;51.440;-2.534;2023-07-08T13:11:36;21.90;99.90
48988;DHT22;34799;51.440;-2.534;2023-07-08T13:14:05;21.90;99.90
48988;DHT22;34799;51.440;-2.534;2023-07-08T13:16:35;21.90;99.90
48988;DHT22;34799;51.440;-2.534;2023-07-08T13:19:04;21.90;99.90
48988;DHT22;34799;51.440;-2.534;2023-07-08T13:21:32;22.00;99.90
48988;DHT22;34799;51.440;-2.534;2023-07-08T13:23:59;21.10;99.90
48988;DHT22;34799;51.440;-2.534;2023-07-08T13:26:29;22.30;99.90
48988;DHT22;34799;51.440;-2.534;2023-07-08T13:29:06;22.60;99.90
48988;DHT22;34799;51.440;-2.534;2023-07-08T13:31:37;22.80;99.90
48988;DHT22;34799;51.440;-2.534;2023-07-08T13:34:13;22.90;99.90
48988;DHT22;34799;51.440;-2.534;2023-07-08T13:36:44;23.00;99.90
48988;DHT22;34799;51.440;-2.534;2023-07-08T13:41:50;23.20;99.90
48988;DHT22;34799;51.440;-2.534;2023-07-08T13:44:17;23.10;99.90
48988;DHT22;34799;51.440;-2.534;2023-07-08T13:46:57;23.10;99.90
48988;DHT22;34799;51.440;-2.534;2023-07-08T13:49:27;23.10;99.90
48988;DHT22;34799;51.440;-2.534;2023-07-08T13:52:25;23.10;99.90
48988;DHT22;34799;51.440;-2.534;2023-07-08T13:54:59;23.10;99.90
48988;DHT22;34799;51.440;-2.534;2023-07-08T13:57:37;23.10;99.90
48988;DHT22;34799;51.440;-2.534;2023-07-08T14:00:07;23.10;99.90
48988;DHT22;34799;51.440;-2.534;2023-07-08T14:02:40;23.20;99.90
48988;DHT22;34799;51.440;-2.534;2023-07-08T14:05:12;23.20;99.90
48988;DHT22;34799;51.440;-2.534;2023-07-08T14:07:40;23.30;99.90
48988;DHT22;34799;51.440;-2.534;2023-07-08T14:10:12;23.30;99.90
48988;DHT22;34799;51.440;-2.534;2023-07-08T14:12:41;23.30;99.90
48988;DHT22;34799;51.440;-2.534;2023-07-08T14:15:09;23.30;99.90
48988;DHT22;34799;51.440;-2.534;2023-07-08T14:17:37;23.30;99.90
48988;DHT22;34799;51.440;-2.534;2023-07-08T14:20:15;23.10;99.90
48988;DHT22;34799;51.440;-2.534;2023-07-08T14:22:43;22.90;99.90
48988;DHT22;34799;51.440;-2.534;2023-07-08T14:25:17;22.90;99.90
48988;DHT22;34799;51.440;-2.534;2023-07-08T14:27:47;22.90;99.90
48988;DHT22;34799;51.440;-2.534;2023-07-08T14:30:14;22.80;99.90
48988;DHT22;34799;51.440;-2.534;2023-07-08T14:32:42;22.80;99.90
48988;DHT22;34799;51.440;-2.534;2023-07-08T14:37:42;22.90;99.90
48988;DHT22;34799;51.440;-2.534;2023-07-08T14:42:45;22.90;99.90
48988;DHT22;34799;51.440;-2.534;2023-07-08T14:45:12;22.90;99.90
48988;DHT22;34799;51.440;-2.534;2023-07-08T14:47:40;22.90;99.90
48988;DHT22;34799;51.440;-2.534;2023-07-08T14:50:14;22.90;99.90
48988;DHT22;34799;51.440;-2.534;2023-07-08T14:52:42;22.80;99.90
48988;DHT22;34799;51.440;-2.534;2023-07-08T14:55:09;22.70;99.90
48988;DHT22;34799;51.440;-2.534;2023-07-08T14:57:45;22.70;99.90
48988;DHT22;34799;51.440;-2.534;2023-07-08T15:00:16;22.70;99.90
48988;DHT22;34799;51.440;-2.534;2023-07-08T15:02:45;22.60;99.90
48988;DHT22;34799;51.440;-2.534;2023-07-08T15:05:16;22.50;99.90
48988;DHT22;34799;51.440;-2.534;2023-07-08T15:07:43;22.50;99.90
48988;DHT22;34799;51.440;-2.534;2023-07-08T15:10:11;22.40;99.90
48988;DHT22;34799;51.440;-2.534;2023-07-08T15:12:38;22.40;99.90
48988;DHT22;34799;51.440;-2.534;2023-07-08T15:15:10;22.30;99.90
48988;DHT22;34799;51.440;-2.534;2023-07-08T15:17:41;22.00;99.90
48988;DHT22;34799;51.440;-2.534;2023-07-08T15:20:12;21.80;99.90
48988;DHT22;34799;51.440;-2.534;2023-07-08T15:22:40;21.80;99.90
48988;DHT22;34799;51.440;-2.534;2023-07-08T15:25:12;21.60;99.90
48988;DHT22;34799;51.440;-2.534;2023-07-08T15:27:41;21.60;99.90
48988;DHT22;34799;51.440;-2.534;2023-07-08T15:30:20;21.60;99.90
48988;DHT22;34799;51.440;-2.534;2023-07-08T15:32:50;21.50;99.90
48988;DHT22;34799;51.440;-2.534;2023-07-08T15:35:20;21.60;99.90
48988;DHT22;34799;51.440;-2.534;2023-07-08T15:37:48;21.60;99.90
48988;DHT22;34799;51.440;-2.534;2023-07-08T15:40:17;21.70;99.90
48988;DHT22;34799;51.440;-2.534;2023-07-08T15:42:47;21.90;99.90
48988;DHT22;34799;51.440;-2.534;2023-07-08T15:45:34;22.00;99.90
48988;DHT22;34799;51.440;-2.534;2023-07-08T15:48:02;22.00;99.90
48988;DHT22;34799;51.440;-2.534;2023-07-08T15:50:29;22.00;99.90
48988;DHT22;34799;51.440;-2.534;2023-07-08T15:52:57;22.00;99.90
48988;DHT22;34799;51.440;-2.534;2023-07-08T15:55:31;21.90;99.90
48988;DHT22;34799;51.440;-2.534;2023-07-08T15:58:06;22.00;99.90
48988;DHT22;34799;51.440;-2.534;2023-07-08T16:00:37;22.30;99.90
48988;DHT22;34799;51.440;-2.534;2023-07-08T16:03:27;22.70;99.90
48988;DHT22;34799;51.440;-2.534;2023-07-08T16:05:57;23.10;99.90
48988;DHT22;34799;51.440;-2.534;2023-07-08T16:08:25;23.10;99.90
48988;DHT22;34799;51.440;-2.534;2023-07-08T16:10:56;23.10;99.90
48988;DHT22;34799;51.440;-2.534;2023-07-08T16:13:32;23.20;99.90
48988;DHT22;34799;51.440;-2.534;2023-07-08T16:16:01;23.20;99.90
48988;DHT22;34799;51.440;-2.534;2023-07-08T16:18:31;23.20;99.90
48988;DHT22;34799;51.440;-2.534;2023-07-08T16:20:58;23.10;99.90
48988;DHT22;34799;51.440;-2.534;2023-07-08T16:23:25;23.20;99.90
48988;DHT22;34799;51.440;-2.534;2023-07-08T16:25:53;23.20;99.90
48988;DHT22;34799;51.440;-2.534;2023-07-08T16:28:29;23.10;99.90
48988;DHT22;34799;51.440;-2.534;2023-07-08T16:30:57;23.10;99.90
48988;DHT22;34799;51.440;-2.534;2023-07-08T16:33:24;22.90;99.90
48988;DHT22;34799;51.440;-2.534;2023-07-08T16:35:51;22.90;99.90
48988;DHT22;34799;51.440;-2.534;2023-07-08T16:38:18;23.00;99.90
48988;DHT22;34799;51.440;-2.534;2023-07-08T16:40:45;22.90;99.90
48988;DHT22;34799;51.440;-2.534;2023-07-08T16:45:52;22.70;99.90
48988;DHT22;34799;51.440;-2.534;2023-07-08T16:48:19;22.60;99.90